sensor_id;sensor_type;location;lat;lon;timestamp;P1;durP1;ratioP1;P2;durP2;ratioP2
64854;SDS011;51321;50.428;8.378;2022-12-04T00:00:22;23.30;;;12.65;;
64854;SDS011;51321;50.428;8.378;2022-12-04T00:02:46;22.77;;;14.32;;
64854;SDS011;51321;50.428;8.378;2022-12-04T00:05:08;20.83;;;12.25;;
64854;SDS011;51321;50.428;8.378;2022-12-04T00:07:32;20.55;;;13.27;;
64854;SDS011;51321;50.428;8.378;2022-12-04T00:09:56;22.50;;;13.10;;
64854;SDS011;51321;50.428;8.378;2022-12-04T00:12:19;23.42;;;13.13;;
64854;SDS011;51321;50.428;8.378;2022-12-04T00:17:04;22.50;;;11.95;;
64854;SDS011;51321;50.428;8.378;2022-12-04T00:19:30;22.05;;;12.80;;
64854;SDS011;51321;50.428;8.378;2022-12-04T00:21:52;22.65;;;12.48;;
64854;SDS011;51321;50.428;8.378;2022-12-04T00:24:14;22.67;;;12.80;;
64854;SDS011;51321;50.428;8.378;2022-12-04T00:26:37;21.23;;;12.55;;
64854;SDS011;51321;50.428;8.378;2022-12-04T00:28:59;19.48;;;11.98;;
64854;SDS011;51321;50.428;8.378;2022-12-04T00:33:46;21.20;;;12.20;;
64854;SDS011;51321;50.428;8.378;2022-12-04T00:36:12;19.63;;;12.73;;
64854;SDS011;51321;50.428;8.378;2022-12-04T00:38:36;20.13;;;11.57;;
64854;SDS011;51321;50.428;8.378;2022-12-04T00:41:03;20.55;;;11.77;;
64854;SDS011;51321;50.428;8.378;2022-12-04T00:43:29;21.48;;;12.73;;
64854;SDS011;51321;50.428;8.378;2022-12-04T00:45:52;19.38;;;10.98;;
64854;SDS011;51321;50.428;8.378;2022-12-04T00:50:38;20.02;;;11.23;;
64854;SDS011;51321;50.428;8.378;2022-12-04T00:53:01;21.70;;;12.63;;
64854;SDS011;51321;50.428;8.378;2022-12-04T00:55:24;20.63;;;11.57;;
64854;SDS011;51321;50.428;8.378;2022-12-04T00:57:46;19.58;;;11.27;;
64854;SDS011;51321;50.428;8.378;2022-12-04T01:00:09;21.00;;;12.10;;
64854;SDS011;51321;50.428;8.378;2022-12-04T01:02:31;20.52;;;11.77;;
64854;SDS011;51321;50.428;8.378;2022-12-04T01:04:53;21.08;;;12.13;;
64854;SDS011;51321;50.428;8.378;2022-12-04T01:07:16;19.67;;;11.98;;
64854;SDS011;51321;50.428;8.378;2022-12-04T01:09:41;18.23;;;10.80;;
64854;SDS011;51321;50.428;8.378;2022-12-04T01:12:04;18.70;;;12.05;;
64854;SDS011;51321;50.428;8.378;2022-12-04T01:14:27;18.23;;;11.30;;
64854;SDS011;51321;50.428;8.378;2022-12-04T01:16:49;18.48;;;11.25;;
64854;SDS011;51321;50.428;8.378;2022-12-04T01:19:11;18.02;;;10.80;;
64854;SDS011;51321;50.428;8.378;2022-12-04T01:21:35;17.13;;;10.80;;
64854;SDS011;51321;50.428;8.378;2022-12-04T01:24:01;18.55;;;10.82;;
64854;SDS011;51321;50.428;8.378;2022-12-04T01:26:28;17.73;;;10.90;;
64854;SDS011;51321;50.428;8.378;2022-12-04T01:28:51;16.70;;;10.63;;
64854;SDS011;51321;50.428;8.378;2022-12-04T01:31:14;18.92;;;11.35;;
64854;SDS011;51321;50.428;8.378;2022-12-04T01:33:39;22.95;;;11.85;;
64854;SDS011;51321;50.428;8.378;2022-12-04T01:36:02;19.48;;;11.20;;
64854;SDS011;51321;50.428;8.378;2022-12-04T01:38:26;17.92;;;10.32;;
64854;SDS011;51321;50.428;8.378;2022-12-04T01:40:52;17.17;;;10.07;;
64854;SDS011;51321;50.428;8.378;2022-12-04T01:43:21;16.25;;;10.05;;
64854;SDS011;51321;50.428;8.378;2022-12-04T01:45:44;17.77;;;11.07;;
64854;SDS011;51321;50.428;8.378;2022-12-04T01:48:15;17.65;;;9.95;;
64854;SDS011;51321;50.428;8.378;2022-12-04T01:50:43;16.80;;;10.35;;
64854;SDS011;51321;50.428;8.378;2022-12-04T01:53:08;16.48;;;10.18;;
64854;SDS011;51321;50.428;8.378;2022-12-04T01:55:32;18.60;;;10.77;;
64854;SDS011;51321;50.428;8.378;2022-12-04T01:57:55;17.90;;;10.38;;
64854;SDS011;51321;50.428;8.378;2022-12-04T02:00:22;15.95;;;9.35;;
64854;SDS011;51321;50.428;8.378;2022-12-04T02:02:45;18.15;;;10.25;;
64854;SDS011;51321;50.428;8.378;2022-12-04T02:05:08;17.13;;;9.98;;
64854;SDS011;51321;50.428;8.378;2022-12-04T02:07:33;18.05;;;10.95;;
64854;SDS011;51321;50.428;8.378;2022-12-04T02:09:59;17.33;;;10.75;;
64854;SDS011;51321;50.428;8.378;2022-12-04T02:12:27;15.23;;;10.23;;
64854;SDS011;51321;50.428;8.378;2022-12-04T02:15:00;16.65;;;9.82;;
64854;SDS011;51321;50.428;8.378;2022-12-04T02:17:34;17.88;;;10.27;;
64854;SDS011;51321;50.428;8.378;2022-12-04T02:20:12;18.55;;;11.00;;
64854;SDS011;51321;50.428;8.378;2022-12-04T02:25:42;16.88;;;9.43;;
64854;SDS011;51321;50.428;8.378;2022-12-04T02:30:43;16.90;;;10.00;;
64854;SDS011;51321;50.428;8.378;2022-12-04T02:33:06;17.50;;;9.93;;
64854;SDS011;51321;50.428;8.378;2022-12-04T02:35:39;17.50;;;11.32;;
64854;SDS011;51321;50.428;8.378;2022-12-04T02:38:05;18.40;;;10.40;;
64854;SDS011;51321;50.428;8.378;2022-12-04T02:40:36;17.95;;;10.85;;
64854;SDS011;51321;50.428;8.378;2022-12-04T02:43:06;17.58;;;10.00;;
64854;SDS011;51321;50.428;8.378;2022-12-04T02:45:38;17.83;;;10.35;;
64854;SDS011;51321;50.428;8.378;2022-12-04T02:48:06;18.35;;;10.55;;
64854;SDS011;51321;50.428;8.378;2022-12-04T02:50:29;18.42;;;10.70;;
64854;SDS011;51321;50.428;8.378;2022-12-04T02:52:57;16.63;;;10.48;;
64854;SDS011;51321;50.428;8.378;2022-12-04T02:55:24;19.52;;;10.25;;
64854;SDS011;51321;50.428;8.378;2022-12-04T02:57:52;16.25;;;9.80;;
64854;SDS011;51321;50.428;8.378;2022-12-04T03:00:22;16.33;;;9.98;;
64854;SDS011;51321;50.428;8.378;2022-12-04T03:02:50;15.95;;;9.95;;
64854;SDS011;51321;50.428;8.378;2022-12-04T03:05:16;15.93;;;9.43;;
64854;SDS011;51321;50.428;8.378;2022-12-04T03:07:41;15.45;;;10.20;;
64854;SDS011;51321;50.428;8.378;2022-12-04T03:10:08;16.63;;;9.85;;
64854;SDS011;51321;50.428;8.378;2022-12-04T03:12:35;17.67;;;10.50;;
64854;SDS011;51321;50.428;8.378;2022-12-04T03:15:04;14.20;;;9.30;;
64854;SDS011;51321;50.428;8.378;2022-12-04T03:17:30;16.63;;;10.13;;
64854;SDS011;51321;50.428;8.378;2022-12-04T03:20:01;15.90;;;9.55;;
64854;SDS011;51321;50.428;8.378;2022-12-04T03:22:32;17.80;;;11.00;;
64854;SDS011;51321;50.428;8.378;2022-12-04T03:24:58;18.10;;;10.55;;
64854;SDS011;51321;50.428;8.378;2022-12-04T03:27:27;16.15;;;10.27;;
64854;SDS011;51321;50.428;8.378;2022-12-04T03:29:56;15.55;;;9.80;;
64854;SDS011;51321;50.428;8.378;2022-12-04T03:32:24;21.00;;;10.73;;
64854;SDS011;51321;50.428;8.378;2022-12-04T03:34:53;19.48;;;9.88;;
64854;SDS011;51321;50.428;8.378;2022-12-04T03:37:22;14.38;;;10.18;;
64854;SDS011;51321;50.428;8.378;2022-12-04T03:39:54;17.80;;;11.07;;
64854;SDS011;51321;50.428;8.378;2022-12-04T03:42:21;17.00;;;10.23;;
64854;SDS011;51321;50.428;8.378;2022-12-04T03:44:47;18.00;;;10.40;;
64854;SDS011;51321;50.428;8.378;2022-12-04T03:47:17;18.85;;;11.20;;
64854;SDS011;51321;50.428;8.378;2022-12-04T03:49:50;17.60;;;11.53;;
64854;SDS011;51321;50.428;8.378;2022-12-04T03:52:26;16.98;;;10.98;;
64854;SDS011;51321;50.428;8.378;2022-12-04T03:54:55;19.42;;;10.65;;
64854;SDS011;51321;50.428;8.378;2022-12-04T03:57:24;16.42;;;10.43;;
64854;SDS011;51321;50.428;8.378;2022-12-04T03:59:50;15.27;;;9.43;;
64854;SDS011;51321;50.428;8.378;2022-12-04T04:02:17;16.70;;;10.23;;
64854;SDS011;51321;50.428;8.378;2022-12-04T04:04:47;17.85;;;10.43;;
64854;SDS011;51321;50.428;8.378;2022-12-04T04:07:14;19.13;;;11.27;;
64854;SDS011;51321;50.428;8.378;2022-12-04T04:09:44;19.10;;;11.18;;
64854;SDS011;51321;50.428;8.378;2022-12-04T04:12:12;17.80;;;10.10;;
64854;SDS011;51321;50.428;8.378;2022-12-04T04:14:44;17.33;;;10.45;;
64854;SDS011;51321;50.428;8.378;2022-12-04T04:17:24;17.80;;;10.25;;
64854;SDS011;51321;50.428;8.378;2022-12-04T04:20:10;17.65;;;10.38;;
64854;SDS011;51321;50.428;8.378;2022-12-04T04:22:55;18.30;;;11.13;;
64854;SDS011;51321;50.428;8.378;2022-12-04T04:25:40;18.17;;;11.35;;
64854;SDS011;51321;50.428;8.378;2022-12-04T04:30:49;17.77;;;10.73;;
64854;SDS011;51321;50.428;8.378;2022-12-04T04:33:12;19.38;;;10.95;;
64854;SDS011;51321;50.428;8.378;2022-12-04T04:35:40;17.38;;;10.60;;
64854;SDS011;51321;50.428;8.378;2022-12-04T04:38:10;19.67;;;11.20;;
64854;SDS011;51321;50.428;8.378;2022-12-04T04:40:41;16.52;;;10.55;;
64854;SDS011;51321;50.428;8.378;2022-12-04T04:43:12;17.45;;;10.65;;
64854;SDS011;51321;50.428;8.378;2022-12-04T04:45:42;18.85;;;11.18;;
64854;SDS011;51321;50.428;8.378;2022-12-04T04:48:08;18.25;;;10.77;;
64854;SDS011;51321;50.428;8.378;2022-12-04T04:50:38;16.45;;;9.77;;
64854;SDS011;51321;50.428;8.378;2022-12-04T04:53:06;16.42;;;9.40;;
64854;SDS011;51321;50.428;8.378;2022-12-04T04:55:33;15.43;;;10.52;;
64854;SDS011;51321;50.428;8.378;2022-12-04T04:58:06;16.00;;;9.70;;
64854;SDS011;51321;50.428;8.378;2022-12-04T05:00:28;15.82;;;9.48;;
64854;SDS011;51321;50.428;8.378;2022-12-04T05:02:51;15.23;;;8.82;;
64854;SDS011;51321;50.428;8.378;2022-12-04T05:05:17;15.27;;;9.05;;
64854;SDS011;51321;50.428;8.378;2022-12-04T05:07:39;16.27;;;9.68;;
64854;SDS011;51321;50.428;8.378;2022-12-04T05:10:02;14.98;;;8.73;;
64854;SDS011;51321;50.428;8.378;2022-12-04T05:12:27;16.52;;;9.18;;
64854;SDS011;51321;50.428;8.378;2022-12-04T05:14:50;16.20;;;9.68;;
64854;SDS011;51321;50.428;8.378;2022-12-04T05:17:18;15.93;;;9.98;;
64854;SDS011;51321;50.428;8.378;2022-12-04T05:19:43;15.70;;;9.43;;
64854;SDS011;51321;50.428;8.378;2022-12-04T05:22:15;14.70;;;9.48;;
64854;SDS011;51321;50.428;8.378;2022-12-04T05:24:38;15.68;;;9.60;;
64854;SDS011;51321;50.428;8.378;2022-12-04T05:27:04;15.30;;;9.23;;
64854;SDS011;51321;50.428;8.378;2022-12-04T05:29:26;15.32;;;9.30;;
64854;SDS011;51321;50.428;8.378;2022-12-04T05:31:51;15.23;;;8.77;;
64854;SDS011;51321;50.428;8.378;2022-12-04T05:34:13;16.50;;;9.43;;
64854;SDS011;51321;50.428;8.378;2022-12-04T05:36:36;14.98;;;9.70;;
64854;SDS011;51321;50.428;8.378;2022-12-04T05:39:02;14.88;;;9.40;;
64854;SDS011;51321;50.428;8.378;2022-12-04T05:43:47;14.35;;;9.10;;
64854;SDS011;51321;50.428;8.378;2022-12-04T05:46:10;13.32;;;8.57;;
64854;SDS011;51321;50.428;8.378;2022-12-04T05:48:33;24.25;;;16.15;;
64854;SDS011;51321;50.428;8.378;2022-12-04T05:50:57;23.40;;;18.40;;
64854;SDS011;51321;50.428;8.378;2022-12-04T05:53:22;13.68;;;10.27;;
64854;SDS011;51321;50.428;8.378;2022-12-04T05:55:52;16.45;;;10.35;;
64854;SDS011;51321;50.428;8.378;2022-12-04T05:58:17;14.63;;;9.45;;
64854;SDS011;51321;50.428;8.378;2022-12-04T06:00:40;15.32;;;9.50;;
64854;SDS011;51321;50.428;8.378;2022-12-04T06:03:04;15.95;;;9.65;;
64854;SDS011;51321;50.428;8.378;2022-12-04T06:05:31;15.43;;;10.18;;
64854;SDS011;51321;50.428;8.378;2022-12-04T06:07:54;14.77;;;9.40;;
64854;SDS011;51321;50.428;8.378;2022-12-04T06:10:17;16.90;;;10.20;;
64854;SDS011;51321;50.428;8.378;2022-12-04T06:12:40;17.10;;;10.52;;
64854;SDS011;51321;50.428;8.378;2022-12-04T06:19:49;17.83;;;9.75;;
64854;SDS011;51321;50.428;8.378;2022-12-04T06:22:15;14.43;;;9.45;;
64854;SDS011;51321;50.428;8.378;2022-12-04T06:24:37;16.05;;;10.23;;
64854;SDS011;51321;50.428;8.378;2022-12-04T06:26:59;16.35;;;9.95;;
64854;SDS011;51321;50.428;8.378;2022-12-04T06:29:22;13.60;;;9.38;;
64854;SDS011;51321;50.428;8.378;2022-12-04T06:31:45;15.02;;;9.63;;
64854;SDS011;51321;50.428;8.378;2022-12-04T06:34:07;17.20;;;10.18;;
64854;SDS011;51321;50.428;8.378;2022-12-04T06:36:31;16.80;;;10.02;;
64854;SDS011;51321;50.428;8.378;2022-12-04T06:38:55;16.17;;;9.93;;
64854;SDS011;51321;50.428;8.378;2022-12-04T06:41:18;14.75;;;9.23;;
64854;SDS011;51321;50.428;8.378;2022-12-04T06:43:41;15.15;;;9.93;;
64854;SDS011;51321;50.428;8.378;2022-12-04T06:46:04;15.23;;;10.25;;
64854;SDS011;51321;50.428;8.378;2022-12-04T06:48:29;16.55;;;9.63;;
64854;SDS011;51321;50.428;8.378;2022-12-04T06:50:56;13.95;;;8.98;;
64854;SDS011;51321;50.428;8.378;2022-12-04T06:53:19;15.95;;;10.27;;
64854;SDS011;51321;50.428;8.378;2022-12-04T06:55:47;14.30;;;9.93;;
64854;SDS011;51321;50.428;8.378;2022-12-04T06:58:09;17.83;;;10.57;;
64854;SDS011;51321;50.428;8.378;2022-12-04T07:00:31;16.83;;;9.75;;
64854;SDS011;51321;50.428;8.378;2022-12-04T07:02:55;16.20;;;10.30;;
64854;SDS011;51321;50.428;8.378;2022-12-04T07:05:21;18.63;;;11.10;;
64854;SDS011;51321;50.428;8.378;2022-12-04T07:07:44;15.90;;;9.43;;
64854;SDS011;51321;50.428;8.378;2022-12-04T07:10:07;19.38;;;11.50;;
64854;SDS011;51321;50.428;8.378;2022-12-04T07:12:31;22.63;;;12.30;;
64854;SDS011;51321;50.428;8.378;2022-12-04T07:14:53;24.30;;;14.50;;
64854;SDS011;51321;50.428;8.378;2022-12-04T07:19:37;18.67;;;11.32;;
64854;SDS011;51321;50.428;8.378;2022-12-04T07:22:00;34.80;;;17.00;;
64854;SDS011;51321;50.428;8.378;2022-12-04T07:24:22;30.27;;;17.25;;
64854;SDS011;51321;50.428;8.378;2022-12-04T07:26:45;53.45;;;25.75;;
64854;SDS011;51321;50.428;8.378;2022-12-04T07:29:09;26.05;;;13.75;;
64854;SDS011;51321;50.428;8.378;2022-12-04T07:31:31;25.15;;;14.48;;
64854;SDS011;51321;50.428;8.378;2022-12-04T07:33:54;20.65;;;13.07;;
64854;SDS011;51321;50.428;8.378;2022-12-04T07:36:17;20.48;;;11.93;;
64854;SDS011;51321;50.428;8.378;2022-12-04T07:38:42;17.98;;;10.75;;
64854;SDS011;51321;50.428;8.378;2022-12-04T07:41:06;18.80;;;11.88;;
64854;SDS011;51321;50.428;8.378;2022-12-04T07:43:30;19.38;;;11.50;;
64854;SDS011;51321;50.428;8.378;2022-12-04T07:45:55;17.80;;;11.10;;
64854;SDS011;51321;50.428;8.378;2022-12-04T07:48:17;17.50;;;11.20;;
64854;SDS011;51321;50.428;8.378;2022-12-04T07:50:40;17.83;;;11.27;;
64854;SDS011;51321;50.428;8.378;2022-12-04T07:53:02;18.80;;;12.50;;
64854;SDS011;51321;50.428;8.378;2022-12-04T07:55:25;18.70;;;11.10;;
64854;SDS011;51321;50.428;8.378;2022-12-04T07:57:49;18.50;;;11.82;;
64854;SDS011;51321;50.428;8.378;2022-12-04T08:00:12;18.80;;;11.07;;
64854;SDS011;51321;50.428;8.378;2022-12-04T08:02:38;18.60;;;11.25;;
64854;SDS011;51321;50.428;8.378;2022-12-04T08:05:01;21.27;;;11.73;;
64854;SDS011;51321;50.428;8.378;2022-12-04T08:09:46;18.60;;;11.38;;
64854;SDS011;51321;50.428;8.378;2022-12-04T08:12:09;19.75;;;10.98;;
64854;SDS011;51321;50.428;8.378;2022-12-04T08:14:33;18.23;;;10.93;;
64854;SDS011;51321;50.428;8.378;2022-12-04T08:19:23;17.63;;;10.32;;
64854;SDS011;51321;50.428;8.378;2022-12-04T08:21:48;19.83;;;12.00;;
64854;SDS011;51321;50.428;8.378;2022-12-04T08:26:34;24.08;;;12.07;;
64854;SDS011;51321;50.428;8.378;2022-12-04T08:28:58;21.38;;;11.77;;
64854;SDS011;51321;50.428;8.378;2022-12-04T08:31:22;21.17;;;12.30;;
64854;SDS011;51321;50.428;8.378;2022-12-04T08:33:47;23.02;;;12.63;;
64854;SDS011;51321;50.428;8.378;2022-12-04T08:36:13;19.02;;;11.85;;
64854;SDS011;51321;50.428;8.378;2022-12-04T08:38:37;21.27;;;12.13;;
64854;SDS011;51321;50.428;8.378;2022-12-04T08:41:01;21.00;;;12.13;;
64854;SDS011;51321;50.428;8.378;2022-12-04T08:43:25;20.20;;;12.02;;
64854;SDS011;51321;50.428;8.378;2022-12-04T08:48:14;21.42;;;12.57;;
64854;SDS011;51321;50.428;8.378;2022-12-04T08:50:42;21.90;;;12.60;;
64854;SDS011;51321;50.428;8.378;2022-12-04T08:53:07;20.83;;;12.38;;
64854;SDS011;51321;50.428;8.378;2022-12-04T08:55:30;19.05;;;11.80;;
64854;SDS011;51321;50.428;8.378;2022-12-04T09:00:15;22.52;;;11.95;;
64854;SDS011;51321;50.428;8.378;2022-12-04T09:02:37;22.38;;;12.48;;
64854;SDS011;51321;50.428;8.378;2022-12-04T09:04:59;20.15;;;13.27;;
64854;SDS011;51321;50.428;8.378;2022-12-04T09:07:22;27.35;;;13.98;;
64854;SDS011;51321;50.428;8.378;2022-12-04T09:09:46;22.60;;;13.23;;
64854;SDS011;51321;50.428;8.378;2022-12-04T09:12:08;21.10;;;12.45;;
64854;SDS011;51321;50.428;8.378;2022-12-04T09:14:31;22.48;;;13.70;;
64854;SDS011;51321;50.428;8.378;2022-12-04T09:16:57;22.15;;;12.45;;
64854;SDS011;51321;50.428;8.378;2022-12-04T09:19:19;21.85;;;12.68;;
64854;SDS011;51321;50.428;8.378;2022-12-04T09:21:42;23.45;;;12.38;;
64854;SDS011;51321;50.428;8.378;2022-12-04T09:24:04;21.13;;;12.32;;
64854;SDS011;51321;50.428;8.378;2022-12-04T09:28:53;23.10;;;12.60;;
64854;SDS011;51321;50.428;8.378;2022-12-04T09:31:16;25.30;;;13.65;;
64854;SDS011;51321;50.428;8.378;2022-12-04T09:33:39;24.63;;;12.82;;
64854;SDS011;51321;50.428;8.378;2022-12-04T09:36:02;25.38;;;13.63;;
64854;SDS011;51321;50.428;8.378;2022-12-04T09:38:25;24.63;;;13.20;;
64854;SDS011;51321;50.428;8.378;2022-12-04T09:40:49;26.60;;;15.32;;
64854;SDS011;51321;50.428;8.378;2022-12-04T09:43:24;26.00;;;14.30;;
64854;SDS011;51321;50.428;8.378;2022-12-04T09:45:52;26.13;;;13.27;;
64854;SDS011;51321;50.428;8.378;2022-12-04T09:48:20;24.17;;;13.57;;
64854;SDS011;51321;50.428;8.378;2022-12-04T09:50:48;28.50;;;14.52;;
64854;SDS011;51321;50.428;8.378;2022-12-04T09:53:12;25.15;;;14.05;;
64854;SDS011;51321;50.428;8.378;2022-12-04T09:55:39;25.27;;;13.57;;
64854;SDS011;51321;50.428;8.378;2022-12-04T09:58:05;26.92;;;14.45;;
64854;SDS011;51321;50.428;8.378;2022-12-04T10:00:36;24.98;;;15.18;;
64854;SDS011;51321;50.428;8.378;2022-12-04T10:03:02;25.58;;;12.77;;
64854;SDS011;51321;50.428;8.378;2022-12-04T10:05:30;23.30;;;14.23;;
64854;SDS011;51321;50.428;8.378;2022-12-04T10:08:04;27.35;;;14.18;;
64854;SDS011;51321;50.428;8.378;2022-12-04T10:10:34;21.80;;;12.52;;
64854;SDS011;51321;50.428;8.378;2022-12-04T10:13:00;21.30;;;12.70;;
64854;SDS011;51321;50.428;8.378;2022-12-04T10:15:33;23.77;;;13.30;;
64854;SDS011;51321;50.428;8.378;2022-12-04T10:18:05;23.17;;;13.80;;
64854;SDS011;51321;50.428;8.378;2022-12-04T10:20:44;21.88;;;12.68;;
64854;SDS011;51321;50.428;8.378;2022-12-04T10:23:18;26.98;;;12.65;;
64854;SDS011;51321;50.428;8.378;2022-12-04T10:25:45;26.77;;;13.65;;
64854;SDS011;51321;50.428;8.378;2022-12-04T10:28:15;25.23;;;12.93;;
64854;SDS011;51321;50.428;8.378;2022-12-04T10:30:45;25.30;;;13.23;;
64854;SDS011;51321;50.428;8.378;2022-12-04T10:33:12;22.85;;;13.30;;
64854;SDS011;51321;50.428;8.378;2022-12-04T10:35:40;23.45;;;13.43;;
64854;SDS011;51321;50.428;8.378;2022-12-04T10:38:05;23.88;;;13.13;;
64854;SDS011;51321;50.428;8.378;2022-12-04T10:40:36;25.13;;;13.20;;
64854;SDS011;51321;50.428;8.378;2022-12-04T10:43:04;20.90;;;12.43;;
64854;SDS011;51321;50.428;8.378;2022-12-04T10:45:35;23.13;;;13.73;;
64854;SDS011;51321;50.428;8.378;2022-12-04T10:48:01;25.48;;;13.50;;
64854;SDS011;51321;50.428;8.378;2022-12-04T10:50:23;23.38;;;13.23;;
64854;SDS011;51321;50.428;8.378;2022-12-04T10:52:46;25.35;;;13.43;;
64854;SDS011;51321;50.428;8.378;2022-12-04T10:55:11;21.60;;;13.07;;
64854;SDS011;51321;50.428;8.378;2022-12-04T10:57:35;25.20;;;15.00;;
64854;SDS011;51321;50.428;8.378;2022-12-04T10:59:59;21.38;;;12.98;;
64854;SDS011;51321;50.428;8.378;2022-12-04T11:02:22;24.20;;;13.63;;
64854;SDS011;51321;50.428;8.378;2022-12-04T11:04:54;23.90;;;13.63;;
64854;SDS011;51321;50.428;8.378;2022-12-04T11:07:18;23.15;;;13.18;;
64854;SDS011;51321;50.428;8.378;2022-12-04T11:09:42;26.95;;;14.10;;
64854;SDS011;51321;50.428;8.378;2022-12-04T11:12:15;24.23;;;12.97;;
64854;SDS011;51321;50.428;8.378;2022-12-04T11:14:40;23.80;;;13.80;;
64854;SDS011;51321;50.428;8.378;2022-12-04T11:17:02;23.70;;;13.35;;
64854;SDS011;51321;50.428;8.378;2022-12-04T11:19:30;22.08;;;13.25;;
64854;SDS011;51321;50.428;8.378;2022-12-04T11:21:57;21.70;;;13.60;;
64854;SDS011;51321;50.428;8.378;2022-12-04T11:24:35;24.50;;;14.45;;
64854;SDS011;51321;50.428;8.378;2022-12-04T11:26:59;21.38;;;12.93;;
64854;SDS011;51321;50.428;8.378;2022-12-04T11:29:25;23.85;;;13.82;;
64854;SDS011;51321;50.428;8.378;2022-12-04T11:31:53;21.27;;;12.50;;
64854;SDS011;51321;50.428;8.378;2022-12-04T11:34:17;26.30;;;14.57;;
64854;SDS011;51321;50.428;8.378;2022-12-04T11:36:43;24.00;;;13.30;;
64854;SDS011;51321;50.428;8.378;2022-12-04T11:39:15;26.10;;;14.48;;
64854;SDS011;51321;50.428;8.378;2022-12-04T11:41:41;24.17;;;14.18;;
64854;SDS011;51321;50.428;8.378;2022-12-04T11:44:04;26.42;;;14.93;;
64854;SDS011;51321;50.428;8.378;2022-12-04T11:46:28;23.67;;;13.57;;
64854;SDS011;51321;50.428;8.378;2022-12-04T11:48:53;26.58;;;15.25;;
64854;SDS011;51321;50.428;8.378;2022-12-04T11:51:18;28.60;;;14.43;;
64854;SDS011;51321;50.428;8.378;2022-12-04T11:53:54;22.00;;;13.38;;
64854;SDS011;51321;50.428;8.378;2022-12-04T11:56:23;24.60;;;14.27;;
64854;SDS011;51321;50.428;8.378;2022-12-04T11:58:52;24.15;;;13.48;;
64854;SDS011;51321;50.428;8.378;2022-12-04T12:01:47;25.15;;;14.65;;
64854;SDS011;51321;50.428;8.378;2022-12-04T12:07:19;25.10;;;14.80;;
64854;SDS011;51321;50.428;8.378;2022-12-04T12:09:53;21.58;;;14.13;;
64854;SDS011;51321;50.428;8.378;2022-12-04T12:12:26;23.75;;;13.20;;
64854;SDS011;51321;50.428;8.378;2022-12-04T12:15:02;23.77;;;14.35;;
64854;SDS011;51321;50.428;8.378;2022-12-04T12:17:35;24.08;;;13.38;;
64854;SDS011;51321;50.428;8.378;2022-12-04T12:20:08;23.35;;;13.73;;
64854;SDS011;51321;50.428;8.378;2022-12-04T12:22:39;22.50;;;13.98;;
64854;SDS011;51321;50.428;8.378;2022-12-04T12:25:24;22.92;;;13.13;;
64854;SDS011;51321;50.428;8.378;2022-12-04T12:30:43;23.67;;;14.05;;
64854;SDS011;51321;50.428;8.378;2022-12-04T12:33:16;23.02;;;14.07;;
64854;SDS011;51321;50.428;8.378;2022-12-04T12:35:44;20.48;;;12.70;;
64854;SDS011;51321;50.428;8.378;2022-12-04T12:38:20;22.92;;;13.27;;
64854;SDS011;51321;50.428;8.378;2022-12-04T12:40:46;22.10;;;11.70;;
64854;SDS011;51321;50.428;8.378;2022-12-04T12:43:11;21.92;;;12.85;;
64854;SDS011;51321;50.428;8.378;2022-12-04T12:45:42;21.27;;;12.85;;
64854;SDS011;51321;50.428;8.378;2022-12-04T12:48:21;20.35;;;12.18;;
64854;SDS011;51321;50.428;8.378;2022-12-04T12:50:47;21.02;;;12.40;;
64854;SDS011;51321;50.428;8.378;2022-12-04T12:53:15;26.08;;;14.80;;
64854;SDS011;51321;50.428;8.378;2022-12-04T12:55:41;21.30;;;12.93;;
64854;SDS011;51321;50.428;8.378;2022-12-04T12:58:09;20.45;;;13.15;;
64854;SDS011;51321;50.428;8.378;2022-12-04T13:00:38;25.33;;;14.00;;
64854;SDS011;51321;50.428;8.378;2022-12-04T13:03:04;21.75;;;13.25;;
64854;SDS011;51321;50.428;8.378;2022-12-04T13:05:42;21.17;;;12.73;;
64854;SDS011;51321;50.428;8.378;2022-12-04T13:08:09;24.02;;;14.18;;
64854;SDS011;51321;50.428;8.378;2022-12-04T13:10:39;20.77;;;12.95;;
64854;SDS011;51321;50.428;8.378;2022-12-04T13:13:05;25.40;;;13.63;;
64854;SDS011;51321;50.428;8.378;2022-12-04T13:15:32;23.02;;;13.35;;
64854;SDS011;51321;50.428;8.378;2022-12-04T13:18:03;23.65;;;13.75;;
64854;SDS011;51321;50.428;8.378;2022-12-04T13:20:30;25.08;;;13.60;;
64854;SDS011;51321;50.428;8.378;2022-12-04T13:23:09;25.13;;;13.25;;
64854;SDS011;51321;50.428;8.378;2022-12-04T13:25:42;23.05;;;13.77;;
64854;SDS011;51321;50.428;8.378;2022-12-04T13:28:14;21.23;;;12.70;;
64854;SDS011;51321;50.428;8.378;2022-12-04T13:30:47;20.60;;;12.45;;
64854;SDS011;51321;50.428;8.378;2022-12-04T13:36:12;18.05;;;12.25;;
64854;SDS011;51321;50.428;8.378;2022-12-04T13:38:53;21.25;;;12.02;;
64854;SDS011;51321;50.428;8.378;2022-12-04T13:41:27;19.85;;;12.63;;
64854;SDS011;51321;50.428;8.378;2022-12-04T13:43:52;20.63;;;12.50;;
64854;SDS011;51321;50.428;8.378;2022-12-04T13:46:26;22.83;;;13.02;;
64854;SDS011;51321;50.428;8.378;2022-12-04T13:48:51;19.50;;;12.50;;
64854;SDS011;51321;50.428;8.378;2022-12-04T13:51:23;21.20;;;12.77;;
64854;SDS011;51321;50.428;8.378;2022-12-04T13:53:59;20.42;;;12.35;;
64854;SDS011;51321;50.428;8.378;2022-12-04T13:56:44;18.45;;;11.75;;
64854;SDS011;51321;50.428;8.378;2022-12-04T13:59:19;21.73;;;12.77;;
64854;SDS011;51321;50.428;8.378;2022-12-04T14:01:43;23.58;;;14.38;;
64854;SDS011;51321;50.428;8.378;2022-12-04T14:04:19;21.60;;;14.82;;
64854;SDS011;51321;50.428;8.378;2022-12-04T14:06:50;18.17;;;12.10;;
64854;SDS011;51321;50.428;8.378;2022-12-04T14:09:17;19.02;;;12.35;;
64854;SDS011;51321;50.428;8.378;2022-12-04T14:11:43;46.88;;;27.75;;
64854;SDS011;51321;50.428;8.378;2022-12-04T14:14:14;25.02;;;17.48;;
64854;SDS011;51321;50.428;8.378;2022-12-04T14:16:46;21.75;;;12.43;;
64854;SDS011;51321;50.428;8.378;2022-12-04T14:21:58;24.10;;;15.50;;
64854;SDS011;51321;50.428;8.378;2022-12-04T14:24:27;29.83;;;18.27;;
64854;SDS011;51321;50.428;8.378;2022-12-04T14:26:51;20.25;;;13.65;;
64854;SDS011;51321;50.428;8.378;2022-12-04T14:29:23;19.40;;;12.95;;
64854;SDS011;51321;50.428;8.378;2022-12-04T14:32:08;20.65;;;13.10;;
64854;SDS011;51321;50.428;8.378;2022-12-04T14:34:35;19.17;;;12.50;;
64854;SDS011;51321;50.428;8.378;2022-12-04T14:39:43;18.30;;;11.80;;
64854;SDS011;51321;50.428;8.378;2022-12-04T14:42:11;19.83;;;12.80;;
64854;SDS011;51321;50.428;8.378;2022-12-04T14:44:35;19.13;;;12.75;;
64854;SDS011;51321;50.428;8.378;2022-12-04T14:46:59;17.70;;;11.88;;
64854;SDS011;51321;50.428;8.378;2022-12-04T14:49:33;19.25;;;13.00;;
64854;SDS011;51321;50.428;8.378;2022-12-04T14:52:04;19.65;;;12.00;;
64854;SDS011;51321;50.428;8.378;2022-12-04T14:54:37;18.65;;;12.32;;
64854;SDS011;51321;50.428;8.378;2022-12-04T14:57:11;20.58;;;13.00;;
64854;SDS011;51321;50.428;8.378;2022-12-04T14:59:49;19.52;;;12.35;;
64854;SDS011;51321;50.428;8.378;2022-12-04T15:02:15;19.13;;;11.57;;
64854;SDS011;51321;50.428;8.378;2022-12-04T15:04:40;18.67;;;12.38;;
64854;SDS011;51321;50.428;8.378;2022-12-04T15:07:05;20.02;;;12.73;;
64854;SDS011;51321;50.428;8.378;2022-12-04T15:09:28;19.33;;;12.20;;
64854;SDS011;51321;50.428;8.378;2022-12-04T15:12:22;19.17;;;12.20;;
64854;SDS011;51321;50.428;8.378;2022-12-04T15:14:56;18.88;;;12.73;;